Elsenborn, Belgium
Current Conditions -  °F | °C
As of 10:25 PM on Saturday 20 Dec 2014 (Local Time) from EBLB Reporting Station
Broken Clouds Broken Clouds  
Wind Chill: 29°   Ceiling: 1200
Heat Index: 37°   Visibility: 6mi
Dew Point: 36°   Wind: 15mph
Humidity: 93%   Direction: 300°WNW
Pressure: 30.3"   Gusts: NA
Location:  50.46°N, 6.22°E
Report Text: EBLB 202125Z AUTO 30013KT 9999 FEW008/// BKN012/// BKN045/// 03/02 Q1026 GRN
Loading
Personal Weather Stations






























Interactive Weather Map New forecast layout! Learn more

10-Day Weather Forecast

Advertisements
Track Severe Weather on mobile